Erdman, Pennsylvania
Current Conditions -  °F | °C
As of 1:53 AM on Friday 28 Nov 2014 (Local Time) from KSEG Reporting Station
Overcast Overcast  
Wind Chill: 32°   Ceiling: 4500
Heat Index: 32°   Visibility: 10mi
Dew Point: 23°   Wind: 3mph
Humidity: 69%   Direction: NA
Pressure: 30.12"   Gusts: NA
Location:  40.6198°N, 76.7286°W
Report Text: KSEG 280653Z AUTO VRB03KT 10SM OVC045 00/M05 A3012 RMK AO2 SLP206 T00001050
Loading
Personal Weather Stations






























Interactive Weather Map New forecast layout! Learn more

10-Day Weather Forecast

Advertisements
Track Severe Weather on mobile